Time;durP1;ratioP1;P1;durP2;ratioP2;P2;SDS_P1;SDS_P2;PMS_P1;PMS_P2;Temp;Humidity;BMP_temperature;BMP_pressure;BME280_temperature;BME280_humidity;BME280_pressure;Samples;Min_cycle;Max_cycle;Signal;HPM_P1;HPM_P2
2021/07/27 00:00:33;;;;;;;8.90;6.63;;;;;;;23.01;58.94;101565.13;5114713;28;20202;-60
2021/07/27 00:03:00;;;;;;;8.97;6.90;;;;;;;22.96;59.02;101556.56;5114449;28;20175;-61
2021/07/27 00:05:26;;;;;;;7.67;6.30;;;;;;;22.90;58.94;101555.75;5114569;28;20593;-60
2021/07/27 00:07:51;;;;;;;6.90;5.77;;;;;;;22.83;59.33;101559.00;5113742;28;20606;-60
2021/07/27 00:10:18;;;;;;;7.00;5.37;;;;;;;21.77;59.39;101403.50;5114291;28;20220;-61
2021/07/27 00:12:43;;;;;;;10.10;6.00;;;;;;;22.78;59.52;101563.28;5114433;28;20654;-60
2021/07/27 00:15:09;;;;;;;8.70;5.93;;;;;;;22.76;59.67;101562.22;5114499;28;20174;-61
2021/07/27 00:17:35;;;;;;;11.40;6.10;;;;;;;22.56;60.27;101559.41;5113742;28;20178;-61
2021/07/27 00:20:00;;;;;;;9.00;6.63;;;;;;;22.41;59.93;101547.34;5095544;28;20205;-60
2021/07/27 00:22:25;;;;;;;10.63;6.40;;;;;;;22.34;60.60;101557.00;5114200;28;20174;-61
2021/07/27 00:24:53;;;;;;;16.60;7.13;;;;;;;21.86;60.94;101509.81;5113910;28;20257;-61
2021/07/27 00:27:19;;;;;;;7.90;6.40;;;;;;;22.21;60.94;101570.66;5113505;28;20711;-60
2021/07/27 00:29:45;;;;;;;10.47;6.37;;;;;;;22.22;61.06;101585.56;5113331;28;20311;-60
2021/07/27 00:32:10;;;;;;;10.17;6.07;;;;;;;22.16;60.85;101581.88;5114118;28;20202;-60
2021/07/27 00:34:36;;;;;;;9.37;6.80;;;;;;;22.26;60.91;101594.63;5113734;28;20186;-60
2021/07/27 00:37:01;;;;;;;10.43;6.47;;;;;;;22.25;60.95;101598.69;5113128;28;20656;-60
2021/07/27 00:39:27;;;;;;;9.13;6.47;;;;;;;22.25;60.88;101604.34;5113917;28;20174;-60
2021/07/27 00:41:52;;;;;;;13.03;7.10;;;;;;;22.15;60.95;101603.69;5113399;28;20226;-60
2021/07/27 00:44:18;;;;;;;12.07;6.47;;;;;;;22.04;61.06;101609.16;5114057;28;20550;-60
2021/07/27 00:46:43;;;;;;;10.03;7.20;;;;;;;22.00;61.18;101607.81;5112674;28;20214;-60
2021/07/27 00:49:09;;;;;;;14.30;6.90;;;;;;;21.68;61.33;101580.50;5095002;28;20547;-60
2021/07/27 00:51:34;;;;;;;12.90;6.77;;;;;;;21.04;61.92;101515.50;5113485;28;20174;-60
2021/07/27 00:54:00;;;;;;;10.47;6.53;;;;;;;21.71;61.94;101608.59;5113408;28;20174;-60
2021/07/27 00:56:26;;;;;;;8.30;6.67;;;;;;;21.77;62.02;101614.31;5112924;28;20257;-60
2021/07/27 00:58:53;;;;;;;11.90;6.33;;;;;;;21.69;62.06;101610.34;5113387;28;20253;-60
2021/07/27 01:01:19;;;;;;;11.17;6.00;;;;;;;21.85;62.07;101621.13;5113398;28;20266;-60
2021/07/27 01:03:45;;;;;;;8.93;5.83;;;;;;;21.84;62.08;101619.56;5113354;28;20644;-60
2021/07/27 01:06:10;;;;;;;10.00;6.90;;;;;;;21.85;61.98;101615.50;5094404;28;20251;-61
2021/07/27 01:08:37;;;;;;;8.07;6.20;;;;;;;21.85;62.09;101604.22;5113743;28;20185;-60
2021/07/27 01:11:03;;;;;;;9.93;6.03;;;;;;;21.83;62.24;101606.72;5113039;28;20181;-60
2021/07/27 01:13:29;;;;;;;13.50;6.83;;;;;;;21.77;62.36;101603.03;5113345;28;20591;-60
2021/07/27 01:15:58;;;;;;;8.50;6.17;;;;;;;21.77;62.43;101600.19;5112680;28;20251;-59
2021/07/27 01:18:28;;;;;;;10.43;6.00;;;;;;;21.76;62.61;101598.66;5113477;28;20624;-60
2021/07/27 01:40:08;;;;;;;10.93;5.80;;;;;;;21.84;62.42;101591.34;5112943;28;20454;-60
2021/07/27 01:42:39;;;;;;;15.77;6.33;;;;;;;21.71;62.17;101588.84;5112434;28;20645;-60
2021/07/27 01:45:11;;;;;;;9.87;5.97;;;;;;;21.73;61.51;101591.94;5112706;28;20269;-61
2021/07/27 01:47:36;;;;;;;15.43;7.40;;;;;;;21.76;61.47;101584.53;5111965;28;20216;-60
2021/07/27 01:50:02;;;;;;;10.93;6.93;;;;;;;21.77;61.22;101594.56;5112213;28;20202;-60
2021/07/27 01:52:27;;;;;;;8.63;5.93;;;;;;;21.74;61.22;101596.31;5112483;28;20178;-61
2021/07/27 01:54:55;;;;;;;7.13;5.83;;;;;;;21.20;60.94;101515.06;5112313;28;20211;-60
2021/07/27 01:57:22;;;;;;;10.67;6.27;;;;;;;21.72;60.95;101592.41;5111591;28;20182;-60
2021/07/27 01:59:50;;;;;;;23.13;7.37;;;;;;;21.69;60.87;101599.81;5112057;28;20188;-61
2021/07/27 02:02:16;;;;;;;12.73;7.17;;;;;;;21.15;61.46;101543.13;5112399;28;20173;-60
2021/07/27 02:04:41;;;;;;;8.93;6.43;;;;;;;21.60;61.84;101599.84;5111708;28;20651;-60
2021/07/27 02:07:10;;;;;;;8.23;6.00;;;;;;;20.67;61.80;101505.00;5111430;28;20178;-60
2021/07/27 02:09:41;;;;;;;11.73;7.23;;;;;;;21.31;61.98;101608.28;5111846;28;20178;-60
2021/07/27 02:12:15;;;;;;;11.97;6.60;;;;;;;21.09;62.79;101601.44;5112038;28;20248;-60
2021/07/27 02:17:25;;;;;;;10.10;6.47;;;;;;;21.16;62.64;101607.47;5111437;28;20183;-60
2021/07/27 02:19:50;;;;;;;9.33;6.20;;;;;;;21.20;62.46;101610.09;5111833;28;20176;-60
2021/07/27 02:22:17;;;;;;;9.03;6.13;;;;;;;21.23;62.28;101607.09;5111923;28;20184;-60
2021/07/27 02:24:45;;;;;;;10.73;6.37;;;;;;;21.26;62.13;101606.16;5111942;28;20193;-60
2021/07/27 02:27:14;;;;;;;9.77;5.90;;;;;;;20.68;62.10;101520.63;5111233;28;20188;-60
2021/07/27 02:29:39;;;;;;;9.70;6.00;;;;;;;21.32;62.05;101609.06;5111595;28;20182;-60
2021/07/27 02:32:05;;;;;;;9.13;5.33;;;;;;;21.33;61.91;101602.19;5111561;28;20179;-60
2021/07/27 02:34:33;;;;;;;8.30;6.13;;;;;;;21.31;61.77;101607.50;5111719;28;20311;-60
2021/07/27 02:37:00;;;;;;;18.97;6.83;;;;;;;21.24;62.03;101596.59;5110815;28;20450;-60
2021/07/27 02:39:25;;;;;;;19.83;7.63;;;;;;;21.20;61.96;101599.63;5111763;28;20282;-60
2021/07/27 02:41:51;;;;;;;20.20;7.00;;;;;;;20.68;61.99;101523.44;5111275;28;20256;-60
2021/07/27 02:44:16;;;;;;;18.63;7.60;;;;;;;21.23;61.80;101603.50;5111714;28;20170;-60
2021/07/27 02:46:42;;;;;;;26.37;7.10;;;;;;;20.82;61.75;101540.38;5111066;28;20182;-60
2021/07/27 02:49:07;;;;;;;13.97;6.77;;;;;;;21.24;61.82;101605.84;5111559;28;20182;-60
2021/07/27 02:51:32;;;;;;;15.83;6.10;;;;;;;20.58;61.71;101488.16;5111246;28;20166;-60
2021/07/27 02:53:58;;;;;;;10.17;6.07;;;;;;;21.31;61.83;101605.47;5111347;28;20190;-60
2021/07/27 02:56:24;;;;;;;11.37;6.17;;;;;;;21.32;61.54;101597.78;5110720;28;20187;-60
2021/07/27 02:58:50;;;;;;;7.87;6.40;;;;;;;21.32;61.40;101611.88;5111022;28;20223;-60
2021/07/27 03:01:15;;;;;;;10.90;6.73;;;;;;;21.29;61.57;101605.16;5111099;28;20623;-60
2021/07/27 03:03:40;;;;;;;12.67;7.30;;;;;;;21.29;61.46;101604.41;5111346;28;20264;-60
2021/07/27 03:06:07;;;;;;;13.27;7.00;;;;;;;21.28;61.53;101609.25;5110850;28;20580;-59
2021/07/27 03:11:31;;;;;;;12.67;6.87;;;;;;;21.12;61.46;101611.72;5065684;28;20193;-60
2021/07/27 03:13:57;;;;;;;10.00;6.67;;;;;;;20.97;61.87;101608.88;5111166;28;20171;-60
2021/07/27 03:16:25;;;;;;;17.87;7.07;;;;;;;20.88;62.22;101617.34;5110204;28;20619;-60
2021/07/27 03:18:56;;;;;;;15.93;7.37;;;;;;;20.81;62.50;101623.34;5111108;28;20238;-60
2021/07/27 03:21:24;;;;;;;13.57;6.93;;;;;;;20.69;62.95;101618.72;5111136;28;20646;-60
2021/07/27 03:23:50;;;;;;;15.50;7.03;;;;;;;20.68;62.96;101627.66;5110967;28;20213;-60
2021/07/27 03:26:18;;;;;;;12.17;7.33;;;;;;;19.71;63.06;101484.84;5110321;28;20195;-60
2021/07/27 03:28:44;;;;;;;13.17;6.70;;;;;;;20.74;63.13;101615.25;5111064;28;20192;-60
2021/07/27 03:31:10;;;;;;;17.17;7.83;;;;;;;20.81;62.88;101617.72;5110725;28;20173;-60
2021/07/27 03:33:36;;;;;;;12.17;8.30;;;;;;;20.78;62.89;101626.34;5110944;28;20658;-60
2021/07/27 03:36:02;;;;;;;14.90;7.87;;;;;;;20.94;62.67;101631.59;5110108;28;20207;-60
2021/07/27 03:38:27;;;;;;;20.57;9.10;;;;;;;20.96;62.75;101629.84;5111003;28;20191;-61
2021/07/27 03:41:11;;;;;;;21.03;9.33;;;;;;;21.02;62.57;101622.28;5110617;28;20653;-60
2021/07/27 03:43:37;;;;;;;24.20;9.00;;;;;;;21.07;62.20;101629.28;5110851;28;20600;-60
2021/07/27 03:46:04;;;;;;;13.77;7.50;;;;;;;20.77;62.27;101576.91;5110058;28;20178;-60
2021/07/27 03:48:29;;;;;;;11.90;6.93;;;;;;;21.16;62.01;101634.88;5110825;28;20258;-60
2021/07/27 03:50:55;;;;;;;11.60;7.57;;;;;;;21.19;61.92;101628.28;5110548;28;20263;-60
2021/07/27 03:53:24;;;;;;;9.90;6.60;;;;;;;21.19;61.99;101628.28;5110718;28;20246;-60
2021/07/27 03:55:50;;;;;;;10.83;6.80;;;;;;;21.22;61.78;101625.28;5110481;28;20193;-60
2021/07/27 03:58:16;;;;;;;8.97;6.80;;;;;;;21.01;61.67;101594.59;5110351;28;20312;-60
2021/07/27 04:00:41;;;;;;;12.97;7.17;;;;;;;21.26;61.78;101628.69;5110491;28;20290;-60
2021/07/27 04:03:08;;;;;;;13.80;7.53;;;;;;;21.24;61.88;101628.38;5098734;28;20194;-60
2021/07/27 04:05:34;;;;;;;15.53;7.40;;;;;;;21.28;62.06;101623.34;5090355;28;20273;-60
2021/07/27 04:08:00;;;;;;;17.63;8.87;;;;;;;21.32;61.92;101626.75;5090042;28;20250;-60
2021/07/27 04:10:26;;;;;;;18.17;9.23;;;;;;;21.05;62.05;101595.19;5090174;28;20687;-60
2021/07/27 04:12:52;;;;;;;19.47;8.70;;;;;;;21.39;62.28;101640.47;5090076;28;20558;-60
2021/07/27 04:15:18;;;;;;;22.63;9.33;;;;;;;21.33;63.48;101630.38;5090265;28;20183;-60
2021/07/27 04:17:44;;;;;;;21.83;11.03;;;;;;;21.38;62.89;101633.28;5089631;28;20198;-60
2021/07/27 04:20:10;;;;;;;17.97;9.93;;;;;;;21.39;62.70;101634.84;5089992;28;20210;-60
2021/07/27 04:22:35;;;;;;;25.63;11.97;;;;;;;21.46;61.71;101620.38;5101831;28;20182;-60
2021/07/27 04:25:01;;;;;;;25.57;11.83;;;;;;;21.64;61.26;101639.94;5103058;28;20643;-60
2021/07/27 04:27:26;;;;;;;28.63;13.07;;;;;;;21.74;60.84;101655.56;5098658;28;20193;-60
2021/07/27 04:29:53;;;;;;;22.20;12.30;;;;;;;21.82;60.56;101655.97;5096184;27;20639;-60
2021/07/27 04:32:18;;;;;;;21.10;11.93;;;;;;;21.94;60.88;101646.41;5109063;27;20190;-60
2021/07/27 04:34:44;;;;;;;17.47;11.37;;;;;;;21.41;60.62;101549.75;5117334;27;20178;-60
2021/07/27 04:37:09;;;;;;;18.53;12.13;;;;;;;21.71;60.05;101596.50;5110870;28;20581;-60
2021/07/27 04:39:36;;;;;;;19.13;11.77;;;;;;;21.92;60.22;101658.22;5104520;28;20214;-59
2021/07/27 04:42:01;;;;;;;15.50;11.70;;;;;;;21.70;60.80;101645.75;5119002;27;20228;-60
2021/07/27 04:44:27;;;;;;;16.23;12.23;;;;;;;21.31;61.16;101587.78;5126022;27;20178;-60
2021/07/27 04:46:53;;;;;;;17.10;11.00;;;;;;;21.98;61.24;101666.75;5117991;27;20190;-60
2021/07/27 04:49:19;;;;;;;20.10;12.40;;;;;;;22.14;60.55;101646.50;5110264;28;20731;-60
2021/07/27 04:51:44;;;;;;;18.23;12.07;;;;;;;22.15;60.76;101654.50;5111589;28;20667;-60
2021/07/27 04:54:16;;;;;;;25.27;12.40;;;;;;;22.28;60.30;101649.34;5112632;28;20174;-60
2021/07/27 04:56:42;;;;;;;17.60;12.60;;;;;;;22.40;60.29;101650.28;5091848;28;20354;-60
2021/07/27 04:59:07;;;;;;;22.37;13.37;;;;;;;21.83;60.10;101578.50;5093588;28;20323;-60
2021/07/27 05:01:33;;;;;;;22.93;14.00;;;;;;;22.54;59.70;101638.22;5111166;28;20790;-60
2021/07/27 05:03:58;;;;;;;25.83;12.83;;;;;;;22.63;59.49;101629.63;5111482;28;20193;-59
2021/07/27 05:06:24;;;;;;;22.90;12.73;;;;;;;22.83;59.04;101626.81;5111720;28;20244;-60
2021/07/27 05:08:50;;;;;;;23.80;12.70;;;;;;;23.00;58.84;101641.97;5110201;28;20178;-60
2021/07/27 05:11:16;;;;;;;27.07;13.47;;;;;;;23.13;58.59;101645.22;5111651;28;20608;-60
2021/07/27 05:13:41;;;;;;;23.37;13.83;;;;;;;23.31;58.94;101647.78;5111718;28;20628;-60
2021/07/27 05:16:07;;;;;;;19.90;12.37;;;;;;;23.41;58.30;101652.03;5111493;28;20225;-60
2021/07/27 05:18:32;;;;;;;19.10;12.83;;;;;;;23.40;58.27;101633.50;5110345;28;20202;-60
2021/07/27 05:20:58;;;;;;;22.20;13.70;;;;;;;23.62;57.48;101637.34;5110282;28;20297;-60
2021/07/27 05:23:30;;;;;;;18.20;13.37;;;;;;;23.82;57.37;101648.63;5111696;28;20178;-60
2021/07/27 05:25:56;;;;;;;20.23;12.57;;;;;;;23.68;57.42;101609.09;5110921;28;20190;-60
2021/07/27 05:28:26;;;;;;;24.87;13.63;;;;;;;24.05;56.46;101644.00;5110498;28;20187;-60
2021/07/27 05:30:51;;;;;;;18.13;13.40;;;;;;;23.56;55.65;101591.25;5110060;28;20189;-60
2021/07/27 05:33:17;;;;;;;22.53;14.33;;;;;;;24.02;55.47;101633.66;5112044;28;20182;-60
2021/07/27 05:35:42;;;;;;;24.57;14.60;;;;;;;24.14;56.17;101650.25;5111354;28;20189;-60
2021/07/27 05:38:07;;;;;;;25.70;14.50;;;;;;;24.35;56.11;101651.69;5110061;28;20428;-60
2021/07/27 05:40:33;;;;;;;21.13;14.07;;;;;;;24.49;56.08;101647.97;5109680;28;20197;-60
2021/07/27 05:42:59;;;;;;;26.57;13.63;;;;;;;24.68;56.27;101656.88;5110824;28;20272;-60
2021/07/27 05:45:27;;;;;;;22.70;13.13;;;;;;;24.80;56.08;101647.94;5111572;28;20291;-60
2021/07/27 05:47:53;;;;;;;19.60;12.70;;;;;;;24.96;55.95;101657.81;5110320;28;20189;-60
2021/07/27 05:50:19;;;;;;;20.83;13.10;;;;;;;25.07;55.63;101655.81;5109316;28;20178;-60
2021/07/27 05:52:45;;;;;;;26.43;13.90;;;;;;;25.15;55.34;101644.75;5110430;28;20209;-59
2021/07/27 05:55:11;;;;;;;22.37;13.93;;;;;;;24.59;54.25;101553.00;5111394;28;20206;-60
2021/07/27 05:57:36;;;;;;;20.93;14.03;;;;;;;25.32;55.03;101656.97;5109724;28;20222;-60
2021/07/27 06:00:04;;;;;;;16.70;13.47;;;;;;;25.49;54.56;101680.53;5109865;28;20198;-60
2021/07/27 06:02:30;;;;;;;24.23;14.03;;;;;;;25.53;54.68;101664.78;5109224;28;20185;-60
2021/07/27 06:04:55;;;;;;;20.07;14.90;;;;;;;25.66;53.97;101675.69;5093064;28;20182;-60
2021/07/27 06:07:20;;;;;;;20.90;13.97;;;;;;;24.93;52.74;101548.25;5109886;28;20186;-60
2021/07/27 06:09:46;;;;;;;17.03;14.17;;;;;;;25.81;52.01;101664.88;5109565;28;20186;-60
2021/07/27 06:12:12;;;;;;;19.90;14.50;;;;;;;25.97;51.15;101667.00;5109973;28;20182;-60
2021/07/27 06:14:38;;;;;;;19.67;14.67;;;;;;;25.37;51.01;101565.41;5110954;28;20278;-60
2021/07/27 06:17:04;;;;;;;21.97;15.77;;;;;;;26.13;51.61;101667.03;5109738;28;20624;-60
2021/07/27 06:19:29;;;;;;;21.10;15.53;;;;;;;26.27;51.46;101673.75;5109024;28;20186;-61
2021/07/27 06:21:55;;;;;;;22.70;15.10;;;;;;;26.38;50.65;101694.41;5110185;28;20569;-60
2021/07/27 06:24:20;;;;;;;22.07;15.23;;;;;;;26.47;50.71;101671.41;5110813;27;20186;-60
2021/07/27 06:26:46;;;;;;;17.00;14.87;;;;;;;26.45;49.52;101662.63;5111815;27;20255;-60
2021/07/27 06:29:11;;;;;;;19.23;14.67;;;;;;;26.63;48.08;101676.34;5110156;27;20178;-60
2021/07/27 06:31:37;;;;;;;20.50;15.40;;;;;;;26.66;48.04;101680.97;5109894;28;20683;-60
2021/07/27 06:34:03;;;;;;;19.37;13.70;;;;;;;26.52;45.06;101678.38;5109324;28;20182;-60
2021/07/27 06:36:29;;;;;;;16.97;13.30;;;;;;;26.33;45.43;101675.31;5110004;28;20211;-60
2021/07/27 06:38:55;;;;;;;20.27;13.00;;;;;;;26.53;45.89;101669.34;5108211;28;20254;-60
2021/07/27 06:41:21;;;;;;;21.67;15.57;;;;;;;26.74;45.36;101670.63;5110667;28;20217;-60
2021/07/27 06:43:46;;;;;;;21.67;14.63;;;;;;;26.11;45.92;101541.00;5109218;28;20763;-60
2021/07/27 06:46:12;;;;;;;21.63;15.37;;;;;;;27.02;46.22;101659.19;5090375;28;20277;-60
2021/07/27 06:48:38;;;;;;;17.87;14.37;;;;;;;27.17;46.17;101662.50;5109431;28;20185;-60
2021/07/27 06:51:08;;;;;;;21.37;14.07;;;;;;;27.32;47.18;101654.44;5108891;28;20184;-60
2021/07/27 06:53:34;;;;;;;19.33;13.27;;;;;;;27.08;46.60;101615.19;5109566;28;20231;-60
2021/07/27 06:55:59;;;;;;;23.93;13.80;;;;;;;27.23;46.52;101649.06;5109110;28;20182;-60
2021/07/27 06:58:25;;;;;;;17.97;13.00;;;;;;;27.44;46.73;101655.94;5109102;28;20182;-60
2021/07/27 07:00:50;;;;;;;18.40;12.90;;;;;;;27.33;47.38;101661.69;5108996;28;20557;-60
2021/07/27 07:03:16;;;;;;;16.07;13.10;;;;;;;27.29;47.41;101653.44;5109937;28;20189;-60
2021/07/27 07:05:42;;;;;;;18.37;12.93;;;;;;;27.52;47.15;101663.41;5109125;28;20174;-61
2021/07/27 07:08:08;;;;;;;19.17;13.47;;;;;;;27.54;46.72;101663.66;5108300;28;20276;-60
2021/07/27 07:10:33;;;;;;;22.30;14.00;;;;;;;27.67;47.19;101657.38;5108958;28;20178;-60
2021/07/27 07:12:59;;;;;;;17.03;12.83;;;;;;;27.93;46.92;101664.22;5110030;28;20248;-60
2021/07/27 07:15:25;;;;;;;22.93;13.67;;;;;;;28.04;46.64;101667.00;5108640;28;20574;-60
2021/07/27 07:17:51;;;;;;;17.40;12.67;;;;;;;28.11;45.09;101657.88;5108327;28;20799;-61
2021/07/27 07:20:16;;;;;;;15.33;12.13;;;;;;;27.30;44.00;101543.97;5108582;28;20198;-60
2021/07/27 07:22:42;;;;;;;15.03;10.87;;;;;;;28.13;43.13;101669.53;5109653;28;20270;-61
2021/07/27 07:25:09;;;;;;;15.83;10.67;;;;;;;28.17;43.22;101667.16;5108836;28;20185;-60
2021/07/27 07:27:34;;;;;;;13.23;11.00;;;;;;;28.09;43.26;101651.94;5108352;28;20178;-60
2021/07/27 07:30:00;;;;;;;13.50;10.50;;;;;;;28.10;43.67;101666.97;5108835;28;20675;-61
2021/07/27 07:32:26;;;;;;;16.27;11.33;;;;;;;28.12;43.04;101670.03;5109620;28;20603;-61
2021/07/27 07:34:51;;;;;;;16.37;11.43;;;;;;;28.16;43.56;101673.38;5108821;28;20177;-60
2021/07/27 07:37:17;;;;;;;17.47;12.03;;;;;;;28.22;43.24;101665.56;5108778;28;20618;-60
2021/07/27 07:39:42;;;;;;;16.70;10.33;;;;;;;28.45;43.64;101670.56;5108527;28;20182;-60
2021/07/27 07:42:08;;;;;;;14.70;10.93;;;;;;;28.52;43.39;101667.16;5108885;28;20765;-61
2021/07/27 07:44:35;;;;;;;19.40;10.97;;;;;;;28.82;43.63;101676.44;5109150;28;20163;-61
2021/07/27 07:47:01;;;;;;;15.97;11.40;;;;;;;28.88;43.33;101670.69;5107885;28;20190;-60
2021/07/27 07:49:27;;;;;;;15.03;11.20;;;;;;;28.38;43.14;101599.06;5107106;28;20182;-61
2021/07/27 07:51:55;;;;;;;19.17;11.43;;;;;;;28.82;43.65;101673.56;5109003;28;20231;-61
2021/07/27 07:54:22;;;;;;;17.47;11.50;;;;;;;28.83;43.03;101672.28;5108621;28;20201;-61
2021/07/27 07:56:48;;;;;;;18.27;11.87;;;;;;;28.67;42.79;101684.63;5108611;28;20268;-60
2021/07/27 07:59:14;;;;;;;19.23;11.73;;;;;;;28.54;43.21;101683.72;5107475;28;20262;-60
2021/07/27 08:01:45;;;;;;;20.27;12.00;;;;;;;28.84;42.67;101673.84;5109655;28;20696;-60
2021/07/27 08:04:11;;;;;;;15.90;11.37;;;;;;;29.15;41.86;101667.53;5111682;28;20590;-60
2021/07/27 08:06:37;;;;;;;15.77;11.20;;;;;;;29.40;41.72;101668.25;5112328;28;20558;-60
2021/07/27 08:09:03;;;;;;;20.45;11.88;;;;;;;29.40;40.92;101662.56;5111161;28;20186;-61
2021/07/27 08:11:28;;;;;;;16.35;11.85;;;;;;;29.35;40.87;101667.03;5113058;28;20174;-60
2021/07/27 08:13:56;;;;;;;17.23;11.93;;;;;;;29.15;41.22;101650.41;5113498;28;20170;-60
2021/07/27 08:16:22;;;;;;;17.42;12.32;;;;;;;29.25;41.59;101680.13;5111360;28;20560;-61
2021/07/27 08:18:47;;;;;;;15.13;12.10;;;;;;;29.27;40.98;101663.22;5111685;28;20182;-60
2021/07/27 08:21:14;;;;;;;16.10;12.03;;;;;;;29.41;40.57;101673.44;5112432;28;20198;-61
2021/07/27 08:23:44;;;;;;;14.95;11.93;;;;;;;29.10;40.02;101596.22;5112547;28;20181;-60
2021/07/27 08:26:09;;;;;;;16.23;12.15;;;;;;;29.40;39.82;101583.38;5111330;28;20293;-60
2021/07/27 08:28:35;;;;;;;14.43;11.73;;;;;;;30.17;39.80;101659.41;5112175;28;20611;-60
2021/07/27 08:31:00;;;;;;;17.95;12.50;;;;;;;30.34;39.69;101668.47;5111839;28;20178;-61
2021/07/27 08:33:26;;;;;;;19.52;12.65;;;;;;;30.22;39.63;101666.31;5121445;27;20187;-60
2021/07/27 08:35:52;;;;;;;16.27;12.32;;;;;;;30.35;39.23;101666.38;5113457;27;20265;-61
2021/07/27 08:38:17;;;;;;;16.27;12.20;;;;;;;30.52;39.10;101675.44;5105296;28;20178;-60
2021/07/27 08:40:48;;;;;;;16.67;12.85;;;;;;;30.29;38.49;101585.63;5109305;27;20244;-61
2021/07/27 08:43:16;;;;;;;18.60;13.05;;;;;;;31.02;38.26;101661.75;5105795;27;20250;-61
2021/07/27 08:45:43;;;;;;;16.88;13.65;;;;;;;31.16;38.81;101648.97;5112868;27;20547;-61
2021/07/27 08:48:09;;;;;;;17.88;13.95;;;;;;;30.99;38.26;101604.84;5119882;27;20187;-61
2021/07/27 08:50:35;;;;;;;16.70;13.25;;;;;;;31.35;37.86;101660.34;5111132;28;20178;-61
2021/07/27 08:53:00;;;;;;;16.60;14.48;;;;;;;31.08;37.55;101662.44;5111245;28;20189;-60
2021/07/27 08:55:26;;;;;;;20.75;14.13;;;;;;;31.12;38.10;101662.09;5111492;28;20178;-60
2021/07/27 08:57:59;;;;;;;18.35;14.45;;;;;;;30.33;37.73;101517.44;5108922;28;20269;-61
2021/07/27 09:00:26;;;;;;;20.15;14.80;;;;;;;31.30;37.88;101652.63;5092347;28;20202;-60
2021/07/27 09:02:52;;;;;;;17.55;14.85;;;;;;;31.59;37.09;101654.34;5110395;28;20197;-60
2021/07/27 09:05:18;;;;;;;20.00;15.32;;;;;;;31.27;37.94;101564.97;5110836;28;20170;-61
2021/07/27 09:07:44;;;;;;;20.00;15.05;;;;;;;32.03;37.38;101636.09;5109062;28;20665;-61
2021/07/27 09:10:15;;;;;;;19.15;16.08;;;;;;;32.19;37.15;101643.56;5091954;28;20186;-61
2021/07/27 09:12:58;;;;;;;20.25;16.05;;;;;;;32.38;36.54;101639.16;5093785;28;20278;-60
2021/07/27 09:15:26;;;;;;;23.02;16.30;;;;;;;32.56;34.88;101643.13;5110920;28;20294;-61
2021/07/27 09:17:53;;;;;;;21.52;16.23;;;;;;;32.73;34.54;101641.34;5109189;28;20322;-61
2021/07/27 09:20:26;;;;;;;21.00;16.25;;;;;;;32.85;34.47;101630.38;5109083;28;20595;-61
2021/07/27 09:22:51;;;;;;;19.60;16.20;;;;;;;32.89;32.55;101647.97;5111425;28;20211;-60
2021/07/27 09:25:18;;;;;;;18.05;15.15;;;;;;;32.78;32.15;101642.56;5111399;28;20212;-61
2021/07/27 09:27:43;;;;;;;17.05;13.80;;;;;;;32.36;32.05;101583.69;5109198;28;20190;-61
2021/07/27 09:30:20;;;;;;;14.40;11.85;;;;;;;32.83;29.51;101621.53;5109363;28;20193;-61
2021/07/27 09:32:48;;;;;;;14.18;11.35;;;;;;;33.09;28.78;101630.69;5110767;28;20202;-61
2021/07/27 09:35:14;;;;;;;18.00;13.40;;;;;;;32.82;28.07;101640.88;5111425;28;20265;-61
2021/07/27 09:37:39;;;;;;;13.32;10.45;;;;;;;32.73;27.96;101606.91;5108861;28;20277;-61
2021/07/27 09:40:06;;;;;;;16.05;11.65;;;;;;;33.14;28.53;101621.16;5108814;28;20255;-61
2021/07/27 09:42:33;;;;;;;13.23;9.95;;;;;;;33.10;27.36;101632.22;5110754;28;20214;-61
2021/07/27 09:45:02;;;;;;;14.63;11.63;;;;;;;32.74;27.79;101550.25;5111153;28;20601;-61
2021/07/27 09:47:27;;;;;;;17.90;13.10;;;;;;;33.25;28.39;101629.44;5109316;28;20189;-61
2021/07/27 09:49:54;;;;;;;20.00;13.40;;;;;;;33.16;28.60;101623.47;5108421;28;20178;-61
2021/07/27 09:52:20;;;;;;;17.55;12.73;;;;;;;32.86;28.57;101566.63;5110976;28;20540;-61
2021/07/27 09:54:45;;;;;;;17.98;13.00;;;;;;;33.33;29.10;101621.63;5110682;28;20185;-60
2021/07/27 09:57:13;;;;;;;14.32;12.65;;;;;;;33.50;29.22;101621.13;5108394;28;20182;-61
2021/07/27 09:59:39;;;;;;;16.92;13.13;;;;;;;33.60;28.96;101625.00;5108224;28;20174;-61
2021/07/27 10:02:06;;;;;;;14.45;12.30;;;;;;;33.80;28.77;101601.13;5110630;28;20683;-61
2021/07/27 10:04:37;;;;;;;19.13;12.25;;;;;;;33.72;28.35;101588.78;5110096;27;20258;-61
2021/07/27 10:07:04;;;;;;;13.45;11.02;;;;;;;34.12;28.15;101616.50;5118742;27;20569;-61
2021/07/27 10:09:31;;;;;;;14.07;10.63;;;;;;;34.17;27.77;101617.63;5112540;27;20181;-61
2021/07/27 10:12:08;;;;;;;16.15;10.77;;;;;;;33.56;27.85;101489.50;5110560;28;20166;-61
2021/07/27 10:14:44;;;;;;;13.25;10.57;;;;;;;33.95;27.42;101509.13;5110258;28;20226;-61
2021/07/27 10:17:13;;;;;;;15.65;10.90;;;;;;;34.87;27.34;101607.09;5107813;28;20178;-61
2021/07/27 10:19:52;;;;;;;16.70;10.40;;;;;;;35.11;27.15;101598.56;5107629;28;20275;-61
2021/07/27 10:22:19;;;;;;;15.45;10.73;;;;;;;35.07;25.31;101592.41;5107729;28;20277;-61
2021/07/27 10:24:46;;;;;;;13.45;10.80;;;;;;;35.19;25.83;101592.75;5109486;28;20208;-62
2021/07/27 10:27:18;;;;;;;16.60;11.00;;;;;;;35.12;26.60;101599.34;5106689;28;20197;-61
2021/07/27 10:29:44;;;;;;;15.52;10.95;;;;;;;34.93;26.08;101593.25;5106637;28;20177;-61
2021/07/27 10:32:23;;;;;;;11.65;9.23;;;;;;;34.60;25.34;101549.13;5108629;28;20193;-61
2021/07/27 10:34:52;;;;;;;9.60;7.57;;;;;;;34.83;24.15;101586.53;5109616;28;20166;-61
2021/07/27 10:37:18;;;;;;;9.88;6.90;;;;;;;34.58;23.84;101525.16;5109062;28;20793;-61
2021/07/27 10:39:48;;;;;;;11.48;6.30;;;;;;;35.23;23.79;101587.38;5089813;28;20235;-61
2021/07/27 10:42:13;;;;;;;9.15;6.45;;;;;;;35.53;23.85;101585.13;5108786;28;20221;-61
2021/07/27 10:44:39;;;;;;;9.02;6.60;;;;;;;35.00;24.07;101489.53;5109505;28;20174;-61
2021/07/27 10:47:05;;;;;;;14.55;7.70;;;;;;;35.57;24.44;101578.97;5109154;28;20652;-61
2021/07/27 10:49:30;;;;;;;8.23;6.43;;;;;;;34.99;24.01;101492.97;5088938;28;20250;-61
2021/07/27 10:52:01;;;;;;;10.23;6.47;;;;;;;35.74;23.44;101576.97;5108709;28;20173;-61
2021/07/27 10:54:29;;;;;;;9.98;6.10;;;;;;;35.79;22.17;101575.19;5109805;28;20269;-61
2021/07/27 10:57:05;;;;;;;10.40;7.28;;;;;;;35.84;23.06;101574.97;5109272;28;20679;-61
2021/07/27 10:59:35;;;;;;;10.23;6.25;;;;;;;36.00;22.35;101575.63;5087856;28;20548;-61
2021/07/27 11:02:11;;;;;;;8.13;5.15;;;;;;;35.96;20.88;101566.59;5074647;28;20210;-61
2021/07/27 11:04:37;;;;;;;10.18;5.57;;;;;;;35.77;21.91;101566.38;5109701;28;20166;-61
2021/07/27 11:07:13;;;;;;;9.15;5.32;;;;;;;36.02;21.76;101582.31;5089898;28;20619;-62
2021/07/27 11:09:59;;;;;;;10.77;6.07;;;;;;;36.24;21.07;101560.44;5107932;28;20185;-61
2021/07/27 11:12:38;;;;;;;8.27;5.90;;;;;;;36.23;22.07;101561.81;5107811;28;20189;-61
2021/07/27 11:15:21;;;;;;;11.25;6.80;;;;;;;36.28;22.61;101557.88;5108692;28;20260;-61
2021/07/27 11:17:49;;;;;;;12.60;7.03;;;;;;;36.53;22.83;101556.50;5108582;28;20189;-61
2021/07/27 11:20:17;;;;;;;10.50;7.13;;;;;;;36.73;23.40;101532.25;5076593;28;20193;-61
2021/07/27 11:22:46;;;;;;;9.73;7.15;;;;;;;36.38;24.02;101484.47;5089862;28;20746;-61
2021/07/27 11:25:12;;;;;;;9.40;7.28;;;;;;;36.88;24.14;101543.63;5108143;28;20283;-61
2021/07/27 11:27:38;;;;;;;9.75;6.78;;;;;;;37.06;23.66;101548.00;5107739;28;20660;-61
2021/07/27 11:30:05;;;;;;;11.27;6.57;;;;;;;37.14;23.57;101533.47;5106622;28;20186;-61
2021/07/27 11:33:06;;;;;;;10.07;6.80;;;;;;;37.28;23.10;101540.44;5088961;28;20277;-62
2021/07/27 11:35:41;;;;;;;10.30;7.20;;;;;;;37.25;23.40;101536.59;5108385;28;20547;-62
2021/07/27 11:38:08;;;;;;;12.73;7.20;;;;;;;37.47;22.60;101537.66;5107672;28;20558;-61